Palmer Municipal Airport Palmer US
ICAO: PAAQ
IATA:
Category: Medium
Scheduled Services:

Elevation: 242 ft
TransAlt. 18000 ft.

Airport Communications:
ANCHORAGE CNTR:118.6
ASOS:134.75
CTAF:123.6
RDO:123.6
KENAI RDO:123.6

PAAQ Zoom In..

If you have problems with the map follow the link
https://www.worldairports.se/pages/airport.php?
ICAO=PAAQ

Runways:

(A) RW 09 length 3617 ft width 75 ft
---- / hdg 93

(B) RW 16 length 6009 ft width 100 ft
---- / hdg 160

(C) RW 27 length 3617 ft width 75 ft
---- / hdg 273

(D) RW 34 length 6009 ft width 100 ft
---- / hdg 340

Location; PAAQ
Day. 05 / Time. 21.53 Zulu
* Altimeter: 29.81
* Temperature: -14° c. -6.8°f.
* Wind from: 000° Speed 00 kn.
Dewpoint: -17° c.
Visibility: 1/4 Statute Miles.
Clouds: Overcast 100 ft.
Conditions: Haze.

PAAQ 052153Z 00000KT 1/4SM HZ OVC001 M14/M17 A2981 RMK AO2 SLP102 I1001 T11441172


Wind - Calm.

 
 
jpsmedia worldairports.se 2019   terms of use